sensor_id;sensor_type;location;lat;lon;timestamp;P1;durP1;ratioP1;P2;durP2;ratioP2
35496;SDS011;21609;49.298;6.844;2023-04-01T00:01:03;0.57;;;0.40;;
35496;SDS011;21609;49.298;6.844;2023-04-01T00:03:30;0.40;;;0.40;;
35496;SDS011;21609;49.298;6.844;2023-04-01T00:05:58;0.80;;;0.40;;
35496;SDS011;21609;49.298;6.844;2023-04-01T00:08:25;0.70;;;0.35;;
35496;SDS011;21609;49.298;6.844;2023-04-01T00:10:52;0.50;;;0.40;;
35496;SDS011;21609;49.298;6.844;2023-04-01T00:13:18;1.65;;;0.55;;
35496;SDS011;21609;49.298;6.844;2023-04-01T00:15:45;0.65;;;0.50;;
35496;SDS011;21609;49.298;6.844;2023-04-01T00:18:11;0.70;;;0.60;;
35496;SDS011;21609;49.298;6.844;2023-04-01T00:20:38;1.52;;;0.40;;
35496;SDS011;21609;49.298;6.844;2023-04-01T00:23:04;0.90;;;0.30;;
35496;SDS011;21609;49.298;6.844;2023-04-01T00:25:30;0.75;;;0.30;;
35496;SDS011;21609;49.298;6.844;2023-04-01T00:27:55;0.30;;;0.30;;
35496;SDS011;21609;49.298;6.844;2023-04-01T00:30:21;0.45;;;0.30;;
35496;SDS011;21609;49.298;6.844;2023-04-01T00:32:47;0.50;;;0.38;;
35496;SDS011;21609;49.298;6.844;2023-04-01T00:35:17;0.80;;;0.40;;
35496;SDS011;21609;49.298;6.844;2023-04-01T00:37:42;0.50;;;0.40;;
35496;SDS011;21609;49.298;6.844;2023-04-01T00:40:11;0.60;;;0.32;;
35496;SDS011;21609;49.298;6.844;2023-04-01T00:42:51;1.17;;;0.60;;
35496;SDS011;21609;49.298;6.844;2023-04-01T00:47:58;0.57;;;0.30;;
35496;SDS011;21609;49.298;6.844;2023-04-01T00:50:27;0.77;;;0.30;;
35496;SDS011;21609;49.298;6.844;2023-04-01T00:52:54;1.98;;;0.40;;
35496;SDS011;21609;49.298;6.844;2023-04-01T00:55:20;0.70;;;0.47;;
35496;SDS011;21609;49.298;6.844;2023-04-01T00:57:47;1.10;;;0.40;;
35496;SDS011;21609;49.298;6.844;2023-04-01T01:00:16;0.90;;;0.50;;
35496;SDS011;21609;49.298;6.844;2023-04-01T01:02:43;0.40;;;0.40;;
35496;SDS011;21609;49.298;6.844;2023-04-01T01:05:12;1.08;;;0.45;;
35496;SDS011;21609;49.298;6.844;2023-04-01T01:08:29;0.40;;;0.32;;
35496;SDS011;21609;49.298;6.844;2023-04-01T01:10:39;1.02;;;0.40;;
35496;SDS011;21609;49.298;6.844;2023-04-01T01:13:10;0.90;;;0.47;;
35496;SDS011;21609;49.298;6.844;2023-04-01T01:15:57;0.50;;;0.40;;
35496;SDS011;21609;49.298;6.844;2023-04-01T01:26:40;0.60;;;0.30;;
35496;SDS011;21609;49.298;6.844;2023-04-01T01:32:14;0.40;;;0.30;;
35496;SDS011;21609;49.298;6.844;2023-04-01T01:35:38;0.52;;;0.30;;
35496;SDS011;21609;49.298;6.844;2023-04-01T01:37:59;0.45;;;0.20;;
35496;SDS011;21609;49.298;6.844;2023-04-01T01:40:28;0.50;;;0.38;;
35496;SDS011;21609;49.298;6.844;2023-04-01T01:42:58;0.38;;;0.32;;
35496;SDS011;21609;49.298;6.844;2023-04-01T01:45:28;0.63;;;0.40;;
35496;SDS011;21609;49.298;6.844;2023-04-01T01:47:56;1.65;;;0.32;;
35496;SDS011;21609;49.298;6.844;2023-04-01T01:50:24;0.98;;;0.60;;
35496;SDS011;21609;49.298;6.844;2023-04-01T01:52:51;0.30;;;0.30;;
35496;SDS011;21609;49.298;6.844;2023-04-01T01:55:32;0.32;;;0.22;;
35496;SDS011;21609;49.298;6.844;2023-04-01T01:58:02;0.80;;;0.30;;
35496;SDS011;21609;49.298;6.844;2023-04-01T02:00:55;0.40;;;0.30;;
35496;SDS011;21609;49.298;6.844;2023-04-01T02:03:24;0.35;;;0.28;;
35496;SDS011;21609;49.298;6.844;2023-04-01T02:05:53;0.52;;;0.28;;
35496;SDS011;21609;49.298;6.844;2023-04-01T02:08:30;0.47;;;0.30;;
35496;SDS011;21609;49.298;6.844;2023-04-01T02:11:09;0.68;;;0.30;;
35496;SDS011;21609;49.298;6.844;2023-04-01T02:16:21;0.30;;;0.22;;
35496;SDS011;21609;49.298;6.844;2023-04-01T02:18:52;0.43;;;0.43;;
35496;SDS011;21609;49.298;6.844;2023-04-01T02:21:20;0.30;;;0.30;;
35496;SDS011;21609;49.298;6.844;2023-04-01T02:23:49;0.20;;;0.20;;
35496;SDS011;21609;49.298;6.844;2023-04-01T02:26:18;0.30;;;0.20;;
35496;SDS011;21609;49.298;6.844;2023-04-01T02:28:44;1.00;;;0.40;;
35496;SDS011;21609;49.298;6.844;2023-04-01T02:31:13;1.40;;;0.38;;
35496;SDS011;21609;49.298;6.844;2023-04-01T02:33:40;1.92;;;0.40;;
35496;SDS011;21609;49.298;6.844;2023-04-01T02:36:09;1.13;;;0.50;;
35496;SDS011;21609;49.298;6.844;2023-04-01T02:38:37;0.30;;;0.30;;
35496;SDS011;21609;49.298;6.844;2023-04-01T02:41:03;1.10;;;0.57;;
35496;SDS011;21609;49.298;6.844;2023-04-01T02:43:30;0.50;;;0.20;;
35496;SDS011;21609;49.298;6.844;2023-04-01T02:45:55;0.98;;;0.38;;
35496;SDS011;21609;49.298;6.844;2023-04-01T02:48:21;0.68;;;0.30;;
35496;SDS011;21609;49.298;6.844;2023-04-01T02:50:47;0.30;;;0.30;;
35496;SDS011;21609;49.298;6.844;2023-04-01T02:53:12;0.82;;;0.38;;
35496;SDS011;21609;49.298;6.844;2023-04-01T02:55:38;0.82;;;0.43;;
35496;SDS011;21609;49.298;6.844;2023-04-01T02:58:03;1.00;;;0.50;;
35496;SDS011;21609;49.298;6.844;2023-04-01T03:00:29;0.95;;;0.32;;
35496;SDS011;21609;49.298;6.844;2023-04-01T03:02:55;0.77;;;0.20;;
35496;SDS011;21609;49.298;6.844;2023-04-01T03:05:21;0.50;;;0.40;;
35496;SDS011;21609;49.298;6.844;2023-04-01T03:07:47;0.82;;;0.38;;
35496;SDS011;21609;49.298;6.844;2023-04-01T03:10:13;0.65;;;0.38;;
35496;SDS011;21609;49.298;6.844;2023-04-01T03:12:39;0.60;;;0.20;;
35496;SDS011;21609;49.298;6.844;2023-04-01T03:15:05;0.52;;;0.22;;
35496;SDS011;21609;49.298;6.844;2023-04-01T03:17:31;0.20;;;0.17;;
35496;SDS011;21609;49.298;6.844;2023-04-01T03:19:56;1.45;;;0.50;;
35496;SDS011;21609;49.298;6.844;2023-04-01T03:22:22;2.38;;;0.40;;
35496;SDS011;21609;49.298;6.844;2023-04-01T03:24:48;0.55;;;0.38;;
35496;SDS011;21609;49.298;6.844;2023-04-01T03:27:13;0.50;;;0.40;;
35496;SDS011;21609;49.298;6.844;2023-04-01T03:29:39;0.73;;;0.38;;
35496;SDS011;21609;49.298;6.844;2023-04-01T03:32:05;0.20;;;0.20;;
35496;SDS011;21609;49.298;6.844;2023-04-01T03:34:30;0.98;;;0.50;;
35496;SDS011;21609;49.298;6.844;2023-04-01T03:36:57;0.43;;;0.30;;
35496;SDS011;21609;49.298;6.844;2023-04-01T03:39:22;0.40;;;0.30;;
35496;SDS011;21609;49.298;6.844;2023-04-01T03:41:48;1.45;;;0.40;;
35496;SDS011;21609;49.298;6.844;2023-04-01T03:44:14;0.30;;;0.25;;
35496;SDS011;21609;49.298;6.844;2023-04-01T03:46:39;1.50;;;0.52;;
35496;SDS011;21609;49.298;6.844;2023-04-01T03:49:09;0.50;;;0.40;;
35496;SDS011;21609;49.298;6.844;2023-04-01T03:51:40;0.22;;;0.20;;
35496;SDS011;21609;49.298;6.844;2023-04-01T03:54:07;0.40;;;0.30;;
35496;SDS011;21609;49.298;6.844;2023-04-01T03:56:33;1.10;;;0.40;;
35496;SDS011;21609;49.298;6.844;2023-04-01T03:59:01;0.55;;;0.30;;
35496;SDS011;21609;49.298;6.844;2023-04-01T04:01:28;0.30;;;0.30;;
35496;SDS011;21609;49.298;6.844;2023-04-01T04:03:54;0.80;;;0.30;;
35496;SDS011;21609;49.298;6.844;2023-04-01T04:06:20;0.80;;;0.30;;
35496;SDS011;21609;49.298;6.844;2023-04-01T04:08:46;0.40;;;0.30;;
35496;SDS011;21609;49.298;6.844;2023-04-01T04:11:11;0.77;;;0.40;;
35496;SDS011;21609;49.298;6.844;2023-04-01T04:13:37;0.68;;;0.40;;
35496;SDS011;21609;49.298;6.844;2023-04-01T04:16:03;0.47;;;0.32;;
35496;SDS011;21609;49.298;6.844;2023-04-01T04:18:29;0.30;;;0.30;;
35496;SDS011;21609;49.298;6.844;2023-04-01T04:20:55;0.40;;;0.30;;
35496;SDS011;21609;49.298;6.844;2023-04-01T04:23:21;0.30;;;0.30;;
35496;SDS011;21609;49.298;6.844;2023-04-01T04:26:00;0.40;;;0.38;;
35496;SDS011;21609;49.298;6.844;2023-04-01T04:28:28;1.10;;;0.32;;
35496;SDS011;21609;49.298;6.844;2023-04-01T04:30:54;1.40;;;0.30;;
35496;SDS011;21609;49.298;6.844;2023-04-01T04:33:21;0.68;;;0.30;;
35496;SDS011;21609;49.298;6.844;2023-04-01T04:35:47;0.55;;;0.35;;
35496;SDS011;21609;49.298;6.844;2023-04-01T04:38:13;0.75;;;0.30;;
35496;SDS011;21609;49.298;6.844;2023-04-01T04:40:39;0.20;;;0.20;;
35496;SDS011;21609;49.298;6.844;2023-04-01T04:43:05;1.38;;;0.30;;
35496;SDS011;21609;49.298;6.844;2023-04-01T04:45:31;1.17;;;0.30;;
35496;SDS011;21609;49.298;6.844;2023-04-01T04:47:57;0.73;;;0.30;;
35496;SDS011;21609;49.298;6.844;2023-04-01T04:50:23;1.88;;;0.50;;
35496;SDS011;21609;49.298;6.844;2023-04-01T04:52:50;0.88;;;0.25;;
35496;SDS011;21609;49.298;6.844;2023-04-01T04:55:16;0.43;;;0.35;;
35496;SDS011;21609;49.298;6.844;2023-04-01T04:57:41;0.93;;;0.50;;
35496;SDS011;21609;49.298;6.844;2023-04-01T05:00:07;0.40;;;0.32;;
35496;SDS011;21609;49.298;6.844;2023-04-01T05:02:35;0.28;;;0.25;;
35496;SDS011;21609;49.298;6.844;2023-04-01T05:05:00;0.50;;;0.30;;
35496;SDS011;21609;49.298;6.844;2023-04-01T05:07:26;0.20;;;0.20;;
35496;SDS011;21609;49.298;6.844;2023-04-01T05:09:51;0.40;;;0.30;;
35496;SDS011;21609;49.298;6.844;2023-04-01T05:12:17;0.63;;;0.30;;
35496;SDS011;21609;49.298;6.844;2023-04-01T05:14:43;0.43;;;0.25;;
35496;SDS011;21609;49.298;6.844;2023-04-01T05:17:09;0.52;;;0.20;;
35496;SDS011;21609;49.298;6.844;2023-04-01T05:19:35;0.52;;;0.30;;
35496;SDS011;21609;49.298;6.844;2023-04-01T05:22:01;0.80;;;0.40;;
35496;SDS011;21609;49.298;6.844;2023-04-01T05:24:26;0.90;;;0.30;;
35496;SDS011;21609;49.298;6.844;2023-04-01T05:26:52;0.30;;;0.30;;
35496;SDS011;21609;49.298;6.844;2023-04-01T05:29:18;0.63;;;0.30;;
35496;SDS011;21609;49.298;6.844;2023-04-01T05:31:43;0.60;;;0.20;;
35496;SDS011;21609;49.298;6.844;2023-04-01T05:34:09;0.68;;;0.28;;
35496;SDS011;21609;49.298;6.844;2023-04-01T05:36:35;0.30;;;0.25;;
35496;SDS011;21609;49.298;6.844;2023-04-01T05:39:01;1.08;;;0.35;;
35496;SDS011;21609;49.298;6.844;2023-04-01T05:41:26;0.20;;;0.20;;
35496;SDS011;21609;49.298;6.844;2023-04-01T05:43:52;0.85;;;0.35;;
35496;SDS011;21609;49.298;6.844;2023-04-01T05:46:17;0.45;;;0.20;;
35496;SDS011;21609;49.298;6.844;2023-04-01T05:48:43;0.52;;;0.20;;
35496;SDS011;21609;49.298;6.844;2023-04-01T05:51:14;1.38;;;0.20;;
35496;SDS011;21609;49.298;6.844;2023-04-01T05:53:40;2.05;;;0.70;;
35496;SDS011;21609;49.298;6.844;2023-04-01T05:56:07;10.32;;;0.73;;
35496;SDS011;21609;49.298;6.844;2023-04-01T05:58:34;0.77;;;0.30;;
35496;SDS011;21609;49.298;6.844;2023-04-01T06:01:04;2.03;;;0.45;;
35496;SDS011;21609;49.298;6.844;2023-04-01T06:03:31;3.78;;;0.47;;
35496;SDS011;21609;49.298;6.844;2023-04-01T06:05:57;2.75;;;0.55;;
35496;SDS011;21609;49.298;6.844;2023-04-01T06:08:23;3.78;;;0.55;;
35496;SDS011;21609;49.298;6.844;2023-04-01T06:10:55;2.67;;;0.70;;
35496;SDS011;21609;49.298;6.844;2023-04-01T06:13:42;2.03;;;0.60;;
35496;SDS011;21609;49.298;6.844;2023-04-01T06:16:39;2.15;;;0.40;;
35496;SDS011;21609;49.298;6.844;2023-04-01T06:32:38;1.58;;;0.35;;
35496;SDS011;21609;49.298;6.844;2023-04-01T06:38:12;0.90;;;0.47;;
35496;SDS011;21609;49.298;6.844;2023-04-01T06:49:38;1.50;;;0.30;;
35496;SDS011;21609;49.298;6.844;2023-04-01T06:54:40;1.77;;;0.22;;
35496;SDS011;21609;49.298;6.844;2023-04-01T06:57:20;0.35;;;0.28;;
35496;SDS011;21609;49.298;6.844;2023-04-01T07:00:04;1.25;;;0.20;;
35496;SDS011;21609;49.298;6.844;2023-04-01T07:02:50;1.17;;;0.40;;
35496;SDS011;21609;49.298;6.844;2023-04-01T07:05:31;0.47;;;0.20;;
35496;SDS011;21609;49.298;6.844;2023-04-01T07:07:59;2.53;;;0.60;;
35496;SDS011;21609;49.298;6.844;2023-04-01T07:13:28;0.43;;;0.20;;
35496;SDS011;21609;49.298;6.844;2023-04-01T07:16:18;1.73;;;0.40;;
35496;SDS011;21609;49.298;6.844;2023-04-01T07:19:41;2.85;;;0.30;;
35496;SDS011;21609;49.298;6.844;2023-04-01T07:25:05;1.23;;;0.50;;
35496;SDS011;21609;49.298;6.844;2023-04-01T07:27:43;0.43;;;0.22;;
35496;SDS011;21609;49.298;6.844;2023-04-01T07:30:16;1.42;;;0.30;;
35496;SDS011;21609;49.298;6.844;2023-04-01T07:38:12;2.42;;;0.38;;
35496;SDS011;21609;49.298;6.844;2023-04-01T07:40:58;1.98;;;0.20;;
35496;SDS011;21609;49.298;6.844;2023-04-01T07:43:38;0.63;;;0.22;;
35496;SDS011;21609;49.298;6.844;2023-04-01T07:46:19;1.02;;;0.35;;
35496;SDS011;21609;49.298;6.844;2023-04-01T07:51:40;1.33;;;0.30;;
35496;SDS011;21609;49.298;6.844;2023-04-01T07:54:28;1.08;;;0.20;;
35496;SDS011;21609;49.298;6.844;2023-04-01T08:08:34;0.43;;;0.30;;
35496;SDS011;21609;49.298;6.844;2023-04-01T08:16:46;0.40;;;0.20;;
35496;SDS011;21609;49.298;6.844;2023-04-01T08:22:27;0.30;;;0.20;;
35496;SDS011;21609;49.298;6.844;2023-04-01T08:25:04;0.38;;;0.20;;
35496;SDS011;21609;49.298;6.844;2023-04-01T08:27:46;0.30;;;0.20;;
35496;SDS011;21609;49.298;6.844;2023-04-01T08:30:23;1.15;;;0.40;;
35496;SDS011;21609;49.298;6.844;2023-04-01T08:33:12;1.45;;;0.20;;
35496;SDS011;21609;49.298;6.844;2023-04-01T08:38:21;0.38;;;0.20;;
35496;SDS011;21609;49.298;6.844;2023-04-01T08:41:06;0.20;;;0.20;;
35496;SDS011;21609;49.298;6.844;2023-04-01T08:50:01;0.28;;;0.22;;
35496;SDS011;21609;49.298;6.844;2023-04-01T08:52:35;1.65;;;0.20;;
35496;SDS011;21609;49.298;6.844;2023-04-01T09:02:49;0.17;;;0.13;;
35496;SDS011;21609;49.298;6.844;2023-04-01T09:05:44;1.65;;;0.28;;
35496;SDS011;21609;49.298;6.844;2023-04-01T09:08:34;1.38;;;0.43;;
35496;SDS011;21609;49.298;6.844;2023-04-01T09:11:33;1.40;;;0.47;;
35496;SDS011;21609;49.298;6.844;2023-04-01T09:17:28;0.25;;;0.20;;
35496;SDS011;21609;49.298;6.844;2023-04-01T09:20:17;1.38;;;0.32;;
35496;SDS011;21609;49.298;6.844;2023-04-01T09:25:44;1.73;;;0.10;;
35496;SDS011;21609;49.298;6.844;2023-04-01T09:42:27;2.25;;;0.60;;
35496;SDS011;21609;49.298;6.844;2023-04-01T09:47:55;2.17;;;0.60;;
35496;SDS011;21609;49.298;6.844;2023-04-01T10:10:03;2.38;;;1.00;;
35496;SDS011;21609;49.298;6.844;2023-04-01T10:13:03;0.98;;;0.88;;
35496;SDS011;21609;49.298;6.844;2023-04-01T10:27:38;1.08;;;0.85;;
35496;SDS011;21609;49.298;6.844;2023-04-01T10:33:10;1.35;;;0.90;;
35496;SDS011;21609;49.298;6.844;2023-04-01T10:44:13;1.67;;;1.08;;
35496;SDS011;21609;49.298;6.844;2023-04-01T10:50:04;2.50;;;0.80;;
35496;SDS011;21609;49.298;6.844;2023-04-01T11:10:21;1.00;;;0.80;;
35496;SDS011;21609;49.298;6.844;2023-04-01T11:13:19;1.63;;;0.90;;
35496;SDS011;21609;49.298;6.844;2023-04-01T11:16:22;1.98;;;0.93;;
35496;SDS011;21609;49.298;6.844;2023-04-01T11:24:21;3.13;;;0.80;;
35496;SDS011;21609;49.298;6.844;2023-04-01T11:32:50;1.80;;;0.80;;
35496;SDS011;21609;49.298;6.844;2023-04-01T11:35:29;1.40;;;0.80;;
35496;SDS011;21609;49.298;6.844;2023-04-01T11:46:51;1.35;;;0.93;;
35496;SDS011;21609;49.298;6.844;2023-04-01T11:49:36;1.58;;;0.85;;
35496;SDS011;21609;49.298;6.844;2023-04-01T11:55:05;2.47;;;1.42;;
35496;SDS011;21609;49.298;6.844;2023-04-01T11:57:51;1.52;;;1.02;;
35496;SDS011;21609;49.298;6.844;2023-04-01T12:22:46;1.02;;;0.77;;
35496;SDS011;21609;49.298;6.844;2023-04-01T12:25:43;1.40;;;0.80;;
35496;SDS011;21609;49.298;6.844;2023-04-01T12:28:15;2.00;;;1.17;;
35496;SDS011;21609;49.298;6.844;2023-04-01T12:31:18;1.15;;;0.90;;
35496;SDS011;21609;49.298;6.844;2023-04-01T12:34:26;1.23;;;0.73;;
35496;SDS011;21609;49.298;6.844;2023-04-01T12:37:24;1.13;;;0.63;;
35496;SDS011;21609;49.298;6.844;2023-04-01T12:40:17;2.25;;;0.80;;
35496;SDS011;21609;49.298;6.844;2023-04-01T12:45:49;1.27;;;0.82;;
35496;SDS011;21609;49.298;6.844;2023-04-01T12:48:25;1.35;;;0.70;;
35496;SDS011;21609;49.298;6.844;2023-04-01T13:05:47;1.85;;;0.93;;
35496;SDS011;21609;49.298;6.844;2023-04-01T13:11:19;1.40;;;0.85;;
35496;SDS011;21609;49.298;6.844;2023-04-01T13:17:08;0.40;;;0.35;;
35496;SDS011;21609;49.298;6.844;2023-04-01T13:19:50;3.53;;;0.85;;
35496;SDS011;21609;49.298;6.844;2023-04-01T13:25:13;1.00;;;0.73;;
35496;SDS011;21609;49.298;6.844;2023-04-01T13:27:51;1.65;;;0.88;;
35496;SDS011;21609;49.298;6.844;2023-04-01T13:30:33;0.50;;;0.50;;
35496;SDS011;21609;49.298;6.844;2023-04-01T13:41:44;1.30;;;0.93;;
35496;SDS011;21609;49.298;6.844;2023-04-01T13:44:20;2.72;;;1.02;;
35496;SDS011;21609;49.298;6.844;2023-04-01T13:47:02;1.45;;;0.70;;
35496;SDS011;21609;49.298;6.844;2023-04-01T13:58:16;1.33;;;0.73;;
35496;SDS011;21609;49.298;6.844;2023-04-01T14:03:26;1.42;;;0.70;;
35496;SDS011;21609;49.298;6.844;2023-04-01T14:14:30;1.15;;;0.75;;
35496;SDS011;21609;49.298;6.844;2023-04-01T14:17:13;0.85;;;0.57;;
35496;SDS011;21609;49.298;6.844;2023-04-01T14:22:29;1.60;;;0.70;;
35496;SDS011;21609;49.298;6.844;2023-04-01T14:28:12;0.82;;;0.50;;
35496;SDS011;21609;49.298;6.844;2023-04-01T14:30:52;1.10;;;0.65;;
35496;SDS011;21609;49.298;6.844;2023-04-01T14:39:18;1.00;;;0.60;;
35496;SDS011;21609;49.298;6.844;2023-04-01T14:41:48;1.23;;;0.57;;
35496;SDS011;21609;49.298;6.844;2023-04-01T14:50:39;1.17;;;0.80;;
35496;SDS011;21609;49.298;6.844;2023-04-01T14:53:26;1.05;;;0.80;;
35496;SDS011;21609;49.298;6.844;2023-04-01T14:55:59;0.65;;;0.50;;
35496;SDS011;21609;49.298;6.844;2023-04-01T15:12:07;1.30;;;0.80;;
35496;SDS011;21609;49.298;6.844;2023-04-01T15:17:33;0.70;;;0.70;;
35496;SDS011;21609;49.298;6.844;2023-04-01T15:23:10;1.67;;;0.60;;
35496;SDS011;21609;49.298;6.844;2023-04-01T15:34:16;1.10;;;0.70;;
35496;SDS011;21609;49.298;6.844;2023-04-01T15:37:04;0.98;;;0.50;;
35496;SDS011;21609;49.298;6.844;2023-04-01T15:45:30;4.43;;;0.80;;
35496;SDS011;21609;49.298;6.844;2023-04-01T15:48:01;1.73;;;0.77;;
35496;SDS011;21609;49.298;6.844;2023-04-01T15:50:41;0.80;;;0.80;;
35496;SDS011;21609;49.298;6.844;2023-04-01T15:56:42;0.93;;;0.63;;
35496;SDS011;21609;49.298;6.844;2023-04-01T15:59:27;1.20;;;0.82;;
35496;SDS011;21609;49.298;6.844;2023-04-01T16:02:21;1.13;;;0.65;;
35496;SDS011;21609;49.298;6.844;2023-04-01T16:04:58;4.88;;;0.60;;
35496;SDS011;21609;49.298;6.844;2023-04-01T16:10:40;1.10;;;0.80;;
35496;SDS011;21609;49.298;6.844;2023-04-01T16:13:54;0.65;;;0.45;;
35496;SDS011;21609;49.298;6.844;2023-04-01T16:19:21;2.40;;;0.88;;
35496;SDS011;21609;49.298;6.844;2023-04-01T16:22:03;2.05;;;0.60;;
35496;SDS011;21609;49.298;6.844;2023-04-01T16:29:49;1.25;;;0.85;;
35496;SDS011;21609;49.298;6.844;2023-04-01T16:32:45;2.30;;;0.85;;
35496;SDS011;21609;49.298;6.844;2023-04-01T16:35:46;0.70;;;0.60;;
35496;SDS011;21609;49.298;6.844;2023-04-01T16:41:16;2.83;;;0.80;;
35496;SDS011;21609;49.298;6.844;2023-04-01T16:43:53;1.00;;;0.70;;
35496;SDS011;21609;49.298;6.844;2023-04-01T16:51:47;1.02;;;0.40;;
35496;SDS011;21609;49.298;6.844;2023-04-01T16:59:36;1.25;;;0.68;;
35496;SDS011;21609;49.298;6.844;2023-04-01T17:04:37;6.72;;;1.08;;
35496;SDS011;21609;49.298;6.844;2023-04-01T17:18:11;1.10;;;0.75;;
35496;SDS011;21609;49.298;6.844;2023-04-01T17:23:50;2.97;;;0.60;;
35496;SDS011;21609;49.298;6.844;2023-04-01T17:26:32;1.10;;;1.00;;
35496;SDS011;21609;49.298;6.844;2023-04-01T17:32:13;0.88;;;0.70;;
35496;SDS011;21609;49.298;6.844;2023-04-01T17:35:11;1.58;;;0.60;;
35496;SDS011;21609;49.298;6.844;2023-04-01T17:38:06;0.50;;;0.50;;
35496;SDS011;21609;49.298;6.844;2023-04-01T17:49:29;2.63;;;1.08;;
35496;SDS011;21609;49.298;6.844;2023-04-01T18:06:20;1.20;;;0.73;;
35496;SDS011;21609;49.298;6.844;2023-04-01T18:20:39;3.95;;;0.85;;
35496;SDS011;21609;49.298;6.844;2023-04-01T18:26:59;2.53;;;0.70;;
35496;SDS011;21609;49.298;6.844;2023-04-01T18:28:59;1.25;;;0.75;;
35496;SDS011;21609;49.298;6.844;2023-04-01T18:31:37;1.50;;;0.70;;
35496;SDS011;21609;49.298;6.844;2023-04-01T18:34:21;2.40;;;0.70;;
35496;SDS011;21609;49.298;6.844;2023-04-01T18:37:19;0.80;;;0.50;;
35496;SDS011;21609;49.298;6.844;2023-04-01T18:39:52;2.25;;;0.68;;
35496;SDS011;21609;49.298;6.844;2023-04-01T18:45:20;1.08;;;0.98;;
35496;SDS011;21609;49.298;6.844;2023-04-01T18:47:57;3.05;;;1.02;;
35496;SDS011;21609;49.298;6.844;2023-04-01T18:50:47;1.15;;;0.85;;
35496;SDS011;21609;49.298;6.844;2023-04-01T18:53:39;1.10;;;0.63;;
35496;SDS011;21609;49.298;6.844;2023-04-01T18:56:27;1.07;;;0.93;;
35496;SDS011;21609;49.298;6.844;2023-04-01T18:59:01;1.73;;;0.98;;
35496;SDS011;21609;49.298;6.844;2023-04-01T19:10:20;1.10;;;0.70;;
35496;SDS011;21609;49.298;6.844;2023-04-01T19:15:44;1.95;;;0.65;;
35496;SDS011;21609;49.298;6.844;2023-04-01T19:50:47;1.30;;;0.70;;
35496;SDS011;21609;49.298;6.844;2023-04-01T19:53:29;1.03;;;0.67;;
35496;SDS011;21609;49.298;6.844;2023-04-01T19:56:31;2.38;;;0.70;;
35496;SDS011;21609;49.298;6.844;2023-04-01T19:59:31;0.90;;;0.50;;
35496;SDS011;21609;49.298;6.844;2023-04-01T20:07:14;2.25;;;0.75;;
35496;SDS011;21609;49.298;6.844;2023-04-01T20:17:45;0.52;;;0.40;;
35496;SDS011;21609;49.298;6.844;2023-04-01T20:20:23;2.60;;;0.60;;
35496;SDS011;21609;49.298;6.844;2023-04-01T20:25:43;1.50;;;0.60;;
35496;SDS011;21609;49.298;6.844;2023-04-01T20:39:29;0.50;;;0.50;;
35496;SDS011;21609;49.298;6.844;2023-04-01T20:42:16;0.45;;;0.43;;
35496;SDS011;21609;49.298;6.844;2023-04-01T20:58:13;0.70;;;0.50;;
35496;SDS011;21609;49.298;6.844;2023-04-01T21:01:20;0.57;;;0.50;;
35496;SDS011;21609;49.298;6.844;2023-04-01T21:09:40;0.60;;;0.60;;
35496;SDS011;21609;49.298;6.844;2023-04-01T21:12:34;0.82;;;0.80;;
35496;SDS011;21609;49.298;6.844;2023-04-01T21:25:50;0.85;;;0.55;;
35496;SDS011;21609;49.298;6.844;2023-04-01T21:28:40;1.30;;;0.50;;
35496;SDS011;21609;49.298;6.844;2023-04-01T21:53:31;1.92;;;0.70;;
35496;SDS011;21609;49.298;6.844;2023-04-01T22:00:12;1.65;;;0.45;;
35496;SDS011;21609;49.298;6.844;2023-04-01T22:10:31;0.50;;;0.50;;
35496;SDS011;21609;49.298;6.844;2023-04-01T22:13:20;0.63;;;0.60;;
35496;SDS011;21609;49.298;6.844;2023-04-01T22:15:59;1.75;;;0.50;;
35496;SDS011;21609;49.298;6.844;2023-04-01T22:18:56;0.85;;;0.30;;
35496;SDS011;21609;49.298;6.844;2023-04-01T22:24:57;0.55;;;0.40;;
35496;SDS011;21609;49.298;6.844;2023-04-01T22:32:43;0.40;;;0.40;;
35496;SDS011;21609;49.298;6.844;2023-04-01T22:43:38;0.30;;;0.30;;
35496;SDS011;21609;49.298;6.844;2023-04-01T22:49:09;0.45;;;0.43;;
35496;SDS011;21609;49.298;6.844;2023-04-01T22:51:47;0.63;;;0.50;;
35496;SDS011;21609;49.298;6.844;2023-04-01T22:54:39;0.63;;;0.38;;
35496;SDS011;21609;49.298;6.844;2023-04-01T22:57:30;0.70;;;0.60;;
35496;SDS011;21609;49.298;6.844;2023-04-01T23:00:13;0.75;;;0.45;;
35496;SDS011;21609;49.298;6.844;2023-04-01T23:05:30;0.40;;;0.30;;
35496;SDS011;21609;49.298;6.844;2023-04-01T23:08:02;0.75;;;0.40;;
35496;SDS011;21609;49.298;6.844;2023-04-01T23:13:22;0.40;;;0.40;;
35496;SDS011;21609;49.298;6.844;2023-04-01T23:15:52;0.75;;;0.50;;
35496;SDS011;21609;49.298;6.844;2023-04-01T23:23:36;0.30;;;0.30;;
35496;SDS011;21609;49.298;6.844;2023-04-01T23:26:42;1.02;;;0.40;;
35496;SDS011;21609;49.298;6.844;2023-04-01T23:29:24;0.38;;;0.38;;
35496;SDS011;21609;49.298;6.844;2023-04-01T23:31:57;0.40;;;0.40;;
35496;SDS011;21609;49.298;6.844;2023-04-01T23:39:37;0.40;;;0.40;;
35496;SDS011;21609;49.298;6.844;2023-04-01T23:42:24;0.77;;;0.50;;
35496;SDS011;21609;49.298;6.844;2023-04-01T23:44:55;0.40;;;0.40;;
35496;SDS011;21609;49.298;6.844;2023-04-01T23:47:27;0.30;;;0.30;;
35496;SDS011;21609;49.298;6.844;2023-04-01T23:49:56;0.60;;;0.43;;
35496;SDS011;21609;49.298;6.844;2023-04-01T23:52:26;0.40;;;0.40;;
35496;SDS011;21609;49.298;6.844;2023-04-01T23:55:00;0.30;;;0.30;;
35496;SDS011;21609;49.298;6.844;2023-04-01T23:57:30;0.52;;;0.30;;
